Flight Number: AVA1136 Duration: 3:15
Departure: Barcelona airport (LEBL) at 03:30 Distance: 1186.26 Nm
Arrival: Tenerife Los Rodeos (GCXO) at 06:45 Equipment: A321

Weather Information
Barcelona / Aeropuerto, Spain (LEBL) 41-17N 002-04E 6M Apr 07, 2020 - 11:30 AM EDT / 2020.04.07 1530 UTC
Wind: from the SSE (160 degrees) at 8 MPH (7 KT) (direction variable):0
Visibility: greater than 7 mile(s):0
Sky conditions: mostly clear Temperature: 62 F (17 C) Dew Point: 55 F (13 C) Relative Humidity: 77% Pressure (altimeter): 30.30 in. Hg (1026 hPa)
ob: LEBL 071530Z 16007KT 130V190 9999 FEW045 17/13 Q1026 NOSIG cycle: 15
Sunrise: 05:26 Sunset: 18:20 (UTC)

Tenerife / Los Rodeos, Spain (GCXO) 28-28N 016-19W 617M Apr 07, 2020 - 11:30 AM EDT / 2020.04.07 1530 UTC
Wind: from the NW (310 degrees) at 9 MPH (8 KT) (direction variable):0
Visibility: greater than 7 mile(s):0
Sky conditions: mostly clear Temperature: 68 F (20 C) Dew Point: 60 F (16 C) Relative Humidity: 77% Pressure (altimeter): 30.15 in. Hg (1021 hPa)
ob: GCXO 071530Z 31008KT 280V350 9999 FEW008 20/16 Q1021 NOSIG cycle: 15
Sunrise: 06:50 Sunset: 19:24 (UTC)

TAF:2020/04/07 15:30 TAF GCXO 071400Z 0715/0815 30011KT 9999 SCT015 TX22/0813Z TN13/0807Z TEMPO 0715/0717 VRB05KT PROB30 TEMPO 0802/0806 4900 BCFG BKN003

This route has never been flown.

Route map